Time,TemperatureF,DewpointF,PressureIn,WindDirection,WindDirectionDegrees,WindSpeedMPH,WindSpeedGustMPH,Humidity,HourlyPrecipIn,Conditions,Clouds,dailyrainin,SoftwareType,DateUTC
2013-06-28 00:13:00,72.4,71.0,29.87,SE,135,0.0,0.0,95,0.00,,,0.00,weatherlink.com 1.10,2013-06-28 05:13:00,
2013-06-28 00:29:00,71.9,71.0,29.87,SE,135,0.0,0.0,96,0.00,,,0.00,weatherlink.com 1.10,2013-06-28 05:29:00,
2013-06-28 00:43:00,71.5,70.0,29.88,SE,136,0.0,1.0,96,0.00,,,0.00,weatherlink.com 1.10,2013-06-28 05:43:00,
2013-06-28 00:58:00,71.1,70.0,29.86,SE,135,0.0,0.0,96,0.00,,,0.00,weatherlink.com 1.10,2013-06-28 05:58:00,
2013-06-28 01:13:00,70.9,70.0,29.86,South,176,0.0,0.0,97,0.00,,,0.00,weatherlink.com 1.10,2013-06-28 06:13:00,
2013-06-28 01:28:00,70.7,70.0,29.88,South,176,0.0,0.0,97,0.00,,,0.00,weatherlink.com 1.10,2013-06-28 06:28:00,
2013-06-28 01:43:00,70.3,69.0,29.88,SSE,155,0.0,0.0,97,0.00,,,0.00,weatherlink.com 1.10,2013-06-28 06:43:00,
2013-06-28 01:58:00,70.5,70.0,29.88,SSE,155,1.0,1.0,97,0.00,,,0.00,weatherlink.com 1.10,2013-06-28 06:58:00,
2013-06-28 02:13:00,70.7,70.0,29.88,SSE,155,0.0,0.0,97,0.00,,,0.00,weatherlink.com 1.10,2013-06-28 07:13:00,
2013-06-28 02:28:00,70.0,69.0,29.87,SSE,154,0.0,1.0,97,0.00,,,0.00,weatherlink.com 1.10,2013-06-28 07:28:00,
2013-06-28 02:43:00,69.9,69.0,29.86,SSE,153,0.0,0.0,98,0.00,,,0.00,weatherlink.com 1.10,2013-06-28 07:43:00,
2013-06-28 02:58:00,69.6,69.0,29.85,SSE,148,0.0,1.0,98,0.00,,,0.00,weatherlink.com 1.10,2013-06-28 07:58:00,
2013-06-28 03:13:00,70.0,69.0,29.85,SE,146,0.0,0.0,98,0.00,,,0.00,weatherlink.com 1.10,2013-06-28 08:13:00,
2013-06-28 03:28:00,70.0,69.0,29.85,SE,146,0.0,0.0,98,0.00,,,0.00,weatherlink.com 1.10,2013-06-28 08:28:00,
2013-06-28 03:43:00,70.0,69.0,29.85,SE,146,0.0,0.0,98,0.00,,,0.00,weatherlink.com 1.10,2013-06-28 08:43:00,
2013-06-28 03:58:00,71.1,71.0,29.85,West,271,0.0,1.0,99,0.00,,,0.00,weatherlink.com 1.10,2013-06-28 08:58:00,
2013-06-28 04:14:00,72.2,72.0,29.84,WNW,283,0.0,1.0,99,0.00,,,0.00,weatherlink.com 1.10,2013-06-28 09:14:00,
2013-06-28 04:29:00,73.3,73.0,29.84,West,270,0.0,2.0,99,0.00,,,0.00,weatherlink.com 1.10,2013-06-28 09:29:00,
2013-06-28 04:44:00,73.7,73.0,29.84,West,273,1.0,3.0,99,0.00,,,0.00,weatherlink.com 1.10,2013-06-28 09:44:00,
2013-06-28 04:59:00,73.8,74.0,29.85,West,263,1.0,3.0,99,0.00,,,0.00,weatherlink.com 1.10,2013-06-28 09:59:00,
2013-06-28 05:14:00,73.8,74.0,29.85,West,273,1.0,3.0,99,0.00,,,0.00,weatherlink.com 1.10,2013-06-28 10:14:00,
2013-06-28 05:29:00,73.8,74.0,29.86,West,281,0.0,2.0,99,0.00,,,0.00,weatherlink.com 1.10,2013-06-28 10:29:00,
2013-06-28 05:44:00,73.8,74.0,29.86,SW,227,0.0,1.0,99,0.00,,,0.00,weatherlink.com 1.10,2013-06-28 10:44:00,
2013-06-28 05:59:00,73.8,74.0,29.87,West,275,1.0,1.0,99,0.00,,,0.00,weatherlink.com 1.10,2013-06-28 10:59:00,
2013-06-28 06:14:00,73.8,74.0,29.87,West,268,0.0,1.0,99,0.00,,,0.00,weatherlink.com 1.10,2013-06-28 11:14:00,
2013-06-28 06:29:00,73.9,74.0,29.87,West,268,0.0,0.0,99,0.00,,,0.00,weatherlink.com 1.10,2013-06-28 11:29:00,
2013-06-28 06:44:00,74.3,74.0,29.87,West,268,0.0,1.0,99,0.00,,,0.00,weatherlink.com 1.10,2013-06-28 11:44:00,
2013-06-28 06:59:00,74.8,75.0,29.88,West,274,1.0,3.0,99,0.00,,,0.00,weatherlink.com 1.10,2013-06-28 11:59:00,
2013-06-28 07:14:00,75.5,75.0,29.88,West,262,1.0,5.0,98,0.00,,,0.00,weatherlink.com 1.10,2013-06-28 12:14:00,
2013-06-28 07:29:00,76.6,75.0,29.86,WNW,292,3.0,6.0,96,0.00,,,0.00,weatherlink.com 1.10,2013-06-28 12:29:00,
2013-06-28 07:44:00,78.2,76.0,29.87,WNW,290,4.0,5.0,92,0.00,,,0.00,weatherlink.com 1.10,2013-06-28 12:44:00,
2013-06-28 07:59:00,79.6,76.0,29.86,West,277,3.0,5.0,89,0.00,,,0.00,weatherlink.com 1.10,2013-06-28 12:59:00,
2013-06-28 08:14:00,80.1,76.0,29.86,WSW,252,3.0,7.0,86,0.00,,,0.00,weatherlink.com 1.10,2013-06-28 13:14:00,
2013-06-28 08:29:00,80.7,76.0,29.85,WNW,293,1.0,6.0,85,0.00,,,0.00,weatherlink.com 1.10,2013-06-28 13:29:00,
2013-06-28 08:44:00,81.2,76.0,29.84,WSW,242,1.0,8.0,83,0.00,,,0.00,weatherlink.com 1.10,2013-06-28 13:44:00,
2013-06-28 08:59:00,81.9,76.0,29.84,West,279,1.0,7.0,83,0.00,,,0.00,weatherlink.com 1.10,2013-06-28 13:59:00,
2013-06-28 09:14:00,82.5,75.0,29.84,WNW,283,6.0,6.0,79,0.00,,,0.00,weatherlink.com 1.10,2013-06-28 14:14:00,
2013-06-28 09:29:00,83.1,76.0,29.83,WNW,290,4.0,6.0,78,0.00,,,0.00,weatherlink.com 1.10,2013-06-28 14:29:00,
2013-06-28 09:44:00,83.5,76.0,29.84,NW,326,10.0,11.0,77,0.00,,,0.00,weatherlink.com 1.10,2013-06-28 14:44:00,
2013-06-28 09:59:00,83.4,76.0,29.84,West,280,3.0,11.0,78,0.00,,,0.00,weatherlink.com 1.10,2013-06-28 14:59:00,
2013-06-28 10:14:00,83.8,75.0,29.84,West,273,3.0,12.0,74,0.00,,,0.00,weatherlink.com 1.10,2013-06-28 15:14:00,
2013-06-28 10:29:00,84.1,73.0,29.85,WNW,301,8.0,14.0,70,0.00,,,0.00,weatherlink.com 1.10,2013-06-28 15:29:00,
2013-06-28 10:44:00,84.3,74.0,29.85,WNW,290,13.0,16.0,70,0.00,,,0.00,weatherlink.com 1.10,2013-06-28 15:44:00,
2013-06-28 10:59:00,83.9,72.0,29.85,WNW,297,7.0,17.0,67,0.00,,,0.00,weatherlink.com 1.10,2013-06-28 15:59:00,
2013-06-28 11:14:00,83.9,72.0,29.85,West,277,1.0,13.0,67,0.00,,,0.00,weatherlink.com 1.10,2013-06-28 16:14:00,
2013-06-28 11:29:00,84.5,74.0,29.84,WSW,254,5.0,9.0,70,0.00,,,0.00,weatherlink.com 1.10,2013-06-28 16:29:00,
2013-06-28 11:44:00,84.5,72.0,29.84,NW,308,6.0,19.0,67,0.00,,,0.00,weatherlink.com 1.10,2013-06-28 16:44:00,
2013-06-28 11:59:00,84.1,72.0,29.83,WSW,247,6.0,18.0,68,0.00,,,0.00,weatherlink.com 1.10,2013-06-28 16:59:00,
2013-06-28 12:15:00,84.6,73.0,29.81,NNE,32,6.0,10.0,69,0.00,,,0.00,weatherlink.com 1.10,2013-06-28 17:15:00,
2013-06-28 12:30:00,85.1,72.0,29.80,WNW,292,7.0,9.0,65,0.00,,,0.00,weatherlink.com 1.10,2013-06-28 17:30:00,
2013-06-28 12:45:00,85.1,70.0,29.80,WNW,290,5.0,13.0,60,0.00,,,0.00,weatherlink.com 1.10,2013-06-28 17:45:00,
2013-06-28 13:00:00,85.3,71.0,29.80,WNW,301,8.0,10.0,63,0.00,,,0.00,weatherlink.com 1.10,2013-06-28 18:00:00,
2013-06-28 13:15:00,84.4,69.0,29.79,NW,323,3.0,12.0,60,0.00,,,0.00,weatherlink.com 1.10,2013-06-28 18:15:00,
2013-06-28 13:30:00,84.3,69.0,29.78,NW,318,5.0,13.0,61,0.00,,,0.00,weatherlink.com 1.10,2013-06-28 18:30:00,
2013-06-28 13:45:00,84.7,70.0,29.77,West,264,4.0,11.0,62,0.00,,,0.00,weatherlink.com 1.10,2013-06-28 18:45:00,
2013-06-28 14:00:00,85.3,70.0,29.77,WNW,283,5.0,10.0,60,0.00,,,0.00,weatherlink.com 1.10,2013-06-28 19:00:00,
2013-06-28 14:15:00,85.9,71.0,29.77,WNW,288,3.0,15.0,62,0.00,,,0.00,weatherlink.com 1.10,2013-06-28 19:15:00,
2013-06-28 14:30:00,86.3,70.0,29.76,NW,311,9.0,13.0,58,0.00,,,0.00,weatherlink.com 1.10,2013-06-28 19:30:00,
2013-06-28 14:45:00,86.8,71.0,29.76,WSW,256,4.0,12.0,59,0.00,,,0.00,weatherlink.com 1.10,2013-06-28 19:45:00,
2013-06-28 15:00:00,86.5,68.0,29.75,NNW,340,11.0,14.0,55,0.00,,,0.00,weatherlink.com 1.10,2013-06-28 20:00:00,
2013-06-28 15:15:00,86.5,68.0,29.74,NNW,332,12.0,24.0,54,0.00,,,0.00,weatherlink.com 1.10,2013-06-28 20:15:00,
2013-06-28 15:30:00,86.2,69.0,29.74,West,264,12.0,13.0,56,0.00,,,0.00,weatherlink.com 1.10,2013-06-28 20:30:00,
2013-06-28 15:45:00,86.4,68.0,29.75,NW,307,8.0,17.0,54,0.00,,,0.00,weatherlink.com 1.10,2013-06-28 20:45:00,
2013-06-28 16:00:00,86.2,67.0,29.74,NNW,332,5.0,17.0,53,0.00,,,0.00,weatherlink.com 1.10,2013-06-28 21:00:00,
2013-06-28 16:15:00,85.9,68.0,29.74,NNE,15,5.0,15.0,56,0.00,,,0.00,weatherlink.com 1.10,2013-06-28 21:15:00,
2013-06-28 16:30:00,85.3,69.0,29.74,WNW,285,7.0,15.0,58,0.00,,,0.00,weatherlink.com 1.10,2013-06-28 21:30:00,
2013-06-28 16:45:00,84.8,69.0,29.73,NNW,332,6.0,12.0,60,0.00,,,0.00,weatherlink.com 1.10,2013-06-28 21:45:00,
2013-06-28 17:00:00,84.5,70.0,29.73,West,264,2.0,10.0,62,0.00,,,0.00,weatherlink.com 1.10,2013-06-28 22:00:00,
2013-06-28 17:15:00,83.5,70.0,29.73,SW,233,1.0,10.0,64,0.00,,,0.00,weatherlink.com 1.10,2013-06-28 22:15:00,
2013-06-28 17:30:00,83.1,69.0,29.73,NW,305,7.0,13.0,62,0.00,,,0.00,weatherlink.com 1.10,2013-06-28 22:30:00,
2013-06-28 17:45:00,82.9,70.0,29.73,NW,318,5.0,12.0,65,0.00,,,0.00,weatherlink.com 1.10,2013-06-28 22:45:00,
2013-06-28 18:00:00,83.4,70.0,29.72,NNW,335,4.0,7.0,65,0.00,,,0.00,weatherlink.com 1.10,2013-06-28 23:00:00,
2013-06-28 18:15:00,83.6,71.0,29.71,WNW,295,2.0,9.0,65,0.00,,,0.00,weatherlink.com 1.10,2013-06-28 23:15:00,
2013-06-28 18:30:00,83.2,71.0,29.72,West,266,1.0,7.0,67,0.00,,,0.00,weatherlink.com 1.10,2013-06-28 23:30:00,
2013-06-28 18:45:00,82.3,71.0,29.72,NW,307,0.0,6.0,69,0.00,,,0.00,weatherlink.com 1.10,2013-06-28 23:45:00,
2013-06-28 19:16:00,81.2,71.0,29.74,West,276,1.0,5.0,70,0.00,,,0.00,weatherlink.com 1.10,2013-06-29 00:16:00,
2013-06-28 19:30:00,80.7,70.0,29.74,NW,316,1.0,5.0,70,0.00,,,0.00,weatherlink.com 1.10,2013-06-29 00:30:00,
2013-06-28 19:45:00,80.0,71.0,29.74,WSW,256,1.0,5.0,73,0.00,,,0.00,weatherlink.com 1.10,2013-06-29 00:45:00,
2013-06-28 20:00:00,78.9,70.0,29.74,WSW,239,4.0,7.0,75,0.00,,,0.00,weatherlink.com 1.10,2013-06-29 01:00:00,
2013-06-28 20:15:00,78.2,70.0,29.74,WNW,296,5.0,5.0,77,0.00,,,0.00,weatherlink.com 1.10,2013-06-29 01:15:00,
2013-06-28 20:30:00,77.6,71.0,29.75,West,273,2.0,5.0,79,0.00,,,0.00,weatherlink.com 1.10,2013-06-29 01:30:00,
2013-06-28 20:45:00,76.8,71.0,29.75,West,262,0.0,2.0,81,0.00,,,0.00,weatherlink.com 1.10,2013-06-29 01:45:00,
2013-06-28 21:00:00,76.3,70.0,29.74,WNW,298,3.0,4.0,82,0.00,,,0.00,weatherlink.com 1.10,2013-06-29 02:00:00,
2013-06-28 21:15:00,76.1,71.0,29.76,WNW,285,1.0,3.0,83,0.00,,,0.00,weatherlink.com 1.10,2013-06-29 02:15:00,
2013-06-28 21:30:00,75.9,71.0,29.76,West,274,1.0,3.0,84,0.00,,,0.00,weatherlink.com 1.10,2013-06-29 02:30:00,
2013-06-28 21:45:00,75.6,71.0,29.77,West,274,1.0,3.0,85,0.00,,,0.00,weatherlink.com 1.10,2013-06-29 02:45:00,
2013-06-28 22:00:00,75.1,71.0,29.77,WSW,255,0.0,3.0,86,0.00,,,0.00,weatherlink.com 1.10,2013-06-29 03:00:00,
2013-06-28 22:15:00,74.7,71.0,29.77,WNW,294,0.0,2.0,87,0.00,,,0.00,weatherlink.com 1.10,2013-06-29 03:15:00,
2013-06-28 22:30:00,74.3,71.0,29.77,WNW,282,0.0,2.0,88,0.00,,,0.00,weatherlink.com 1.10,2013-06-29 03:30:00,
2013-06-28 22:45:00,74.0,71.0,29.76,NW,309,0.0,1.0,89,0.00,,,0.00,weatherlink.com 1.10,2013-06-29 03:45:00,
2013-06-28 23:00:00,73.6,71.0,29.76,NW,307,0.0,1.0,90,0.00,,,0.00,weatherlink.com 1.10,2013-06-29 04:00:00,
2013-06-28 23:15:00,73.5,71.0,29.76,NW,307,1.0,2.0,90,0.00,,,0.00,weatherlink.com 1.10,2013-06-29 04:15:00,
2013-06-28 23:30:00,73.3,71.0,29.75,NW,316,0.0,2.0,91,0.00,,,0.00,weatherlink.com 1.10,2013-06-29 04:30:00,
2013-06-28 23:45:00,72.8,70.0,29.75,NW,309,0.0,1.0,92,0.00,,,0.00,weatherlink.com 1.10,2013-06-29 04:45:00,